Poio, Spain
Current Conditions -  °F | °C
As of 2:00 AM on Sunday 23 Nov 2014 (Local Time) from LEVX Reporting Station
Light Fog Light Fog  
Wind Chill: 12°   Ceiling: 3400
Heat Index: 12°   Visibility: 1.8mi
Dew Point: 12°   Wind: 1mph
Humidity: 100%   Direction: NA
Pressure: 29.88"   Gusts: NA
Location:  42.44°N, 8.71°W
Report Text: LEVX 230100Z VRB01KT 3000 BCFG FEW002 OVC034 12/12 Q1012 TEMPO 0800 BCFG BKN010
Loading
Personal Weather Stations






























Interactive Weather Map New forecast layout! Learn more

10-Day Weather Forecast

Advertisements
Track Severe Weather on mobile